createdAt,value
2017-03-04T00:00:32.191Z,1018.63
2017-03-04T00:01:32.180Z,1018.61
2017-03-04T00:02:32.171Z,1018.61
2017-03-04T00:03:32.156Z,1018.65
2017-03-04T00:04:32.145Z,1018.63
2017-03-04T00:05:32.137Z,1018.64
2017-03-04T00:06:32.122Z,1018.64
2017-03-04T00:07:32.111Z,1018.58
2017-03-04T00:08:32.099Z,1018.6
2017-03-04T00:09:32.088Z,1018.59
2017-03-04T00:10:32.076Z,1018.56
2017-03-04T00:11:32.065Z,1018.6
2017-03-04T00:12:32.054Z,1018.57
2017-03-04T00:13:32.042Z,1018.56
2017-03-04T00:14:32.030Z,1018.58
2017-03-04T00:15:32.019Z,1018.58
2017-03-04T00:16:32.008Z,1018.6
2017-03-04T00:17:31.995Z,1018.59
2017-03-04T00:18:31.984Z,1018.63
2017-03-04T00:19:31.973Z,1018.63
2017-03-04T00:20:31.962Z,1018.63
2017-03-04T00:21:31.951Z,1018.63
2017-03-04T00:22:31.938Z,1018.65
2017-03-04T00:23:31.927Z,1018.62
2017-03-04T00:24:31.915Z,1018.64
2017-03-04T00:25:31.904Z,1018.61
2017-03-04T00:26:31.893Z,1018.6
2017-03-04T00:27:31.881Z,1018.62
2017-03-04T00:28:31.869Z,1018.61
2017-03-04T00:29:31.858Z,1018.67
2017-03-04T00:30:31.846Z,1018.66
2017-03-04T00:31:31.835Z,1018.61
2017-03-04T00:32:31.823Z,1018.63
2017-03-04T00:33:31.812Z,1018.63
2017-03-04T00:34:31.800Z,1018.6
2017-03-04T00:35:31.789Z,1018.57
2017-03-04T00:36:31.778Z,1018.58
2017-03-04T00:37:31.767Z,1018.57
2017-03-04T00:38:31.754Z,1018.52
2017-03-04T00:39:31.742Z,1018.55
2017-03-04T00:40:31.732Z,1018.53
2017-03-04T00:41:31.721Z,1018.51
2017-03-04T00:42:31.709Z,1018.54
2017-03-04T00:43:31.698Z,1018.48
2017-03-04T00:44:31.686Z,1018.47
2017-03-04T00:45:31.675Z,1018.54
2017-03-04T00:46:31.664Z,1018.51
2017-03-04T00:47:31.652Z,1018.5
2017-03-04T00:48:31.643Z,1018.48
2017-03-04T00:49:31.629Z,1018.47
2017-03-04T00:50:31.617Z,1018.47
2017-03-04T00:51:31.605Z,1018.46
2017-03-04T00:52:31.594Z,1018.46
2017-03-04T00:53:31.583Z,1018.48
2017-03-04T00:54:31.596Z,1018.5
2017-03-04T00:55:31.560Z,1018.48
2017-03-04T00:56:31.548Z,1018.45
2017-03-04T00:57:31.537Z,1018.4
2017-03-04T00:58:31.525Z,1018.45
2017-03-04T00:59:31.514Z,1018.41
2017-03-04T01:00:31.502Z,1018.37
2017-03-04T01:01:31.491Z,1018.35
2017-03-04T01:02:31.479Z,1018.35
2017-03-04T01:03:31.468Z,1018.39
2017-03-04T01:04:31.458Z,1018.37
2017-03-04T01:05:31.445Z,1018.41
2017-03-04T01:06:31.433Z,1018.44
2017-03-04T01:07:31.421Z,1018.44
2017-03-04T01:08:31.410Z,1018.43
2017-03-04T01:09:31.398Z,1018.41
2017-03-04T01:10:31.387Z,1018.43
2017-03-04T01:11:31.375Z,1018.41
2017-03-04T01:12:31.364Z,1018.42
2017-03-04T01:13:31.351Z,1018.39
2017-03-04T01:14:31.341Z,1018.39
2017-03-04T01:15:31.328Z,1018.37
2017-03-04T01:16:31.317Z,1018.36
2017-03-04T01:17:31.306Z,1018.31
2017-03-04T01:18:31.295Z,1018.32
2017-03-04T01:19:31.282Z,1018.27
2017-03-04T01:20:31.272Z,1018.24
2017-03-04T01:21:31.260Z,1018.21
2017-03-04T01:22:31.248Z,1018.21
2017-03-04T01:23:31.236Z,1018.17
2017-03-04T01:24:31.225Z,1018.15
2017-03-04T01:25:31.214Z,1018.14
2017-03-04T01:26:31.203Z,1018.1
2017-03-04T01:27:31.189Z,1018.13
2017-03-04T01:28:31.178Z,1018.11
2017-03-04T01:29:31.167Z,1018.1
2017-03-04T01:30:31.155Z,1018.09
2017-03-04T01:31:31.143Z,1018.05
2017-03-04T01:32:31.132Z,1018.06
2017-03-04T01:33:31.120Z,1018.02
2017-03-04T01:34:31.108Z,1018.04
2017-03-04T01:35:31.099Z,1018.02
2017-03-04T01:36:31.085Z,1018.01
2017-03-04T01:37:31.073Z,1018.01
2017-03-04T01:38:31.061Z,1018
2017-03-04T01:39:31.050Z,1018
2017-03-04T01:40:31.039Z,1017.99
2017-03-04T01:41:31.026Z,1018
2017-03-04T01:42:31.015Z,1018.01
2017-03-04T01:43:31.003Z,1018.04
2017-03-04T01:44:30.994Z,1018.06
2017-03-04T01:45:30.980Z,1018.09
2017-03-04T01:46:30.969Z,1018.03
2017-03-04T01:47:30.957Z,1018.08
2017-03-04T01:48:30.944Z,1018.04
2017-03-04T01:49:30.933Z,1018.06
2017-03-04T01:50:30.923Z,1018.02
2017-03-04T01:51:30.910Z,1018.03
2017-03-04T01:52:30.898Z,1017.99
2017-03-04T01:53:30.886Z,1017.99
2017-03-04T01:54:30.875Z,1017.99
2017-03-04T01:55:30.864Z,1017.96
2017-03-04T01:56:30.853Z,1017.92
2017-03-04T01:57:30.840Z,1017.97
2017-03-04T01:58:30.829Z,1017.95
2017-03-04T01:59:30.815Z,1017.96
2017-03-04T02:00:30.804Z,1017.94
2017-03-04T02:01:30.792Z,1017.93
2017-03-04T02:02:30.781Z,1017.9
2017-03-04T02:03:30.768Z,1017.93
2017-03-04T02:04:30.757Z,1017.95
2017-03-04T02:05:30.745Z,1017.93
2017-03-04T02:06:30.734Z,1017.94
2017-03-04T02:07:30.722Z,1017.97
2017-03-04T02:08:30.710Z,1017.93
2017-03-04T02:09:30.698Z,1017.91
2017-03-04T02:10:30.686Z,1017.91
2017-03-04T02:11:30.674Z,1017.89
2017-03-04T02:12:30.662Z,1017.86
2017-03-04T02:13:30.651Z,1017.83
2017-03-04T02:14:30.638Z,1017.83
2017-03-04T02:15:30.627Z,1017.81
2017-03-04T02:16:30.616Z,1017.81
2017-03-04T02:17:30.604Z,1017.78
2017-03-04T02:18:30.593Z,1017.72
2017-03-04T02:19:30.581Z,1017.77
2017-03-04T02:20:30.570Z,1017.75
2017-03-04T02:21:30.557Z,1017.7
2017-03-04T02:22:30.545Z,1017.72
2017-03-04T02:23:30.534Z,1017.71
2017-03-04T02:24:30.522Z,1017.71
2017-03-04T02:25:30.510Z,1017.7
2017-03-04T02:26:30.501Z,1017.71
2017-03-04T02:27:30.486Z,1017.71
2017-03-04T02:28:30.474Z,1017.69
2017-03-04T02:29:30.462Z,1017.71
2017-03-04T02:30:30.451Z,1017.67
2017-03-04T02:31:30.440Z,1017.66
2017-03-04T02:32:30.427Z,1017.6
2017-03-04T02:33:30.415Z,1017.59
2017-03-04T02:34:30.404Z,1017.58
2017-03-04T02:35:30.392Z,1017.59
2017-03-04T02:36:30.380Z,1017.56
2017-03-04T02:37:30.389Z,1017.58
2017-03-04T02:38:30.358Z,1017.62
2017-03-04T02:39:30.344Z,1017.61
2017-03-04T02:40:30.332Z,1017.64
2017-03-04T02:41:30.321Z,1017.62
2017-03-04T02:42:30.309Z,1017.61
2017-03-04T02:43:30.297Z,1017.57
2017-03-04T02:44:30.285Z,1017.59
2017-03-04T02:45:30.274Z,1017.58
2017-03-04T02:46:30.263Z,1017.62
2017-03-04T02:47:30.249Z,1017.58
2017-03-04T02:48:30.238Z,1017.58
2017-03-04T02:49:30.227Z,1017.6
2017-03-04T02:50:30.214Z,1017.6
2017-03-04T02:51:30.202Z,1017.6
2017-03-04T02:52:30.196Z,1017.61
2017-03-04T02:53:30.180Z,1017.56
2017-03-04T02:54:30.186Z,1017.53
2017-03-04T02:55:30.155Z,1017.54
2017-03-04T02:56:30.394Z,1017.51
2017-03-04T02:57:30.132Z,1017.53
2017-03-04T02:58:30.123Z,1017.57
2017-03-04T02:59:30.108Z,1017.56
2017-03-04T03:00:30.097Z,1017.54
2017-03-04T03:01:30.084Z,1017.5
2017-03-04T03:02:30.073Z,1017.52
2017-03-04T03:03:30.060Z,1017.48
2017-03-04T03:04:30.049Z,1017.45
2017-03-04T03:05:30.037Z,1017.43
2017-03-04T03:06:30.025Z,1017.4
2017-03-04T03:07:30.015Z,1017.37
2017-03-04T03:08:30.002Z,1017.37
2017-03-04T03:09:29.989Z,1017.32
2017-03-04T03:10:29.977Z,1017.32
2017-03-04T03:11:29.966Z,1017.31
2017-03-04T03:12:29.954Z,1017.3
2017-03-04T03:13:29.942Z,1017.29
2017-03-04T03:14:29.930Z,1017.28
2017-03-04T03:15:29.919Z,1017.24
2017-03-04T03:16:29.906Z,1017.23
2017-03-04T03:17:29.895Z,1017.16
2017-03-04T03:18:29.884Z,1017.23
2017-03-04T03:19:29.872Z,1017.2
2017-03-04T03:20:29.859Z,1017.22
2017-03-04T03:21:29.848Z,1017.2
2017-03-04T03:22:29.836Z,1017.18
2017-03-04T03:23:29.824Z,1017.22
2017-03-04T03:24:29.814Z,1017.19
2017-03-04T03:25:29.823Z,1017.22
2017-03-04T03:26:29.789Z,1017.22
2017-03-04T03:27:29.776Z,1017.2
2017-03-04T03:28:29.769Z,1017.16
2017-03-04T03:29:29.754Z,1017.17
2017-03-04T03:30:29.742Z,1017.14
2017-03-04T03:31:29.730Z,1017.17
2017-03-04T03:32:29.718Z,1017.18
2017-03-04T03:33:29.707Z,1017.17
2017-03-04T03:34:29.695Z,1017.13
2017-03-04T03:35:29.683Z,1017.11
2017-03-04T03:36:29.671Z,1017.05
2017-03-04T03:37:29.660Z,1016.99
2017-03-04T03:38:29.648Z,1016.96
2017-03-04T03:39:29.636Z,1016.96
2017-03-04T03:40:29.624Z,1016.97
2017-03-04T03:41:29.613Z,1016.97
2017-03-04T03:42:29.601Z,1016.94
2017-03-04T03:43:29.589Z,1016.99
2017-03-04T03:44:29.578Z,1016.95
2017-03-04T03:45:29.566Z,1016.96
2017-03-04T03:46:29.554Z,1016.97
2017-03-04T03:47:29.542Z,1017
2017-03-04T03:48:29.531Z,1017
2017-03-04T03:49:29.518Z,1017.01
2017-03-04T03:50:29.506Z,1017.05
2017-03-04T03:51:29.496Z,1017.07
2017-03-04T03:52:29.484Z,1017.06
2017-03-04T03:53:29.472Z,1017.08
2017-03-04T03:54:29.461Z,1017.08
2017-03-04T03:55:29.449Z,1017.09
2017-03-04T03:56:29.437Z,1017.13
2017-03-04T03:57:29.426Z,1017.07
2017-03-04T03:58:29.418Z,1017.09
2017-03-04T03:59:29.403Z,1017.07
2017-03-04T04:00:29.390Z,1017.07
2017-03-04T04:01:29.379Z,1017.03
2017-03-04T04:02:29.367Z,1017
2017-03-04T04:03:29.354Z,1017.04
2017-03-04T04:04:29.343Z,1016.98
2017-03-04T04:05:29.332Z,1017.02
2017-03-04T04:06:29.321Z,1016.99
2017-03-04T04:07:29.307Z,1016.98
2017-03-04T04:08:29.295Z,1017.01
2017-03-04T04:09:29.284Z,1017.01
2017-03-04T04:10:29.273Z,1016.99
2017-03-04T04:11:29.260Z,1017.01
2017-03-04T04:12:29.250Z,1017
2017-03-04T04:13:29.237Z,1017.02
2017-03-04T04:14:29.226Z,1017.05
2017-03-04T04:15:29.213Z,1017.05
2017-03-04T04:16:29.201Z,1017.05
2017-03-04T04:17:29.190Z,1017.04
2017-03-04T04:18:29.177Z,1017
2017-03-04T04:19:29.165Z,1016.96
2017-03-04T04:20:29.154Z,1016.98
2017-03-04T04:21:29.142Z,1016.96
2017-03-04T04:22:29.129Z,1016.97
2017-03-04T04:23:29.119Z,1016.91
2017-03-04T04:24:29.106Z,1016.91
2017-03-04T04:25:29.093Z,1016.89
2017-03-04T04:26:29.082Z,1016.93
2017-03-04T04:27:29.070Z,1016.94
2017-03-04T04:28:29.059Z,1016.95
2017-03-04T04:29:29.046Z,1016.91
2017-03-04T04:30:29.034Z,1016.92
2017-03-04T04:31:29.047Z,1016.94
2017-03-04T04:32:29.011Z,1016.93
2017-03-04T04:33:28.998Z,1016.9
2017-03-04T04:34:28.987Z,1016.89
2017-03-04T04:35:28.975Z,1016.88
2017-03-04T04:36:28.963Z,1016.92
2017-03-04T04:37:28.951Z,1016.9
2017-03-04T04:38:28.940Z,1016.91
2017-03-04T04:39:28.928Z,1016.94
2017-03-04T04:40:28.917Z,1016.96
2017-03-04T04:41:28.903Z,1016.96
2017-03-04T04:42:28.891Z,1016.96
2017-03-04T04:43:28.880Z,1016.97
2017-03-04T04:44:28.869Z,1016.97
2017-03-04T04:45:28.855Z,1016.95
2017-03-04T04:46:28.844Z,1016.97
2017-03-04T04:47:28.833Z,1016.93
2017-03-04T04:48:28.819Z,1016.96
2017-03-04T04:49:28.807Z,1017
2017-03-04T04:50:28.795Z,1016.99
2017-03-04T04:51:28.783Z,1017
2017-03-04T04:52:28.771Z,1016.96
2017-03-04T04:53:28.760Z,1016.94
2017-03-04T04:54:28.748Z,1016.96
2017-03-04T04:55:28.735Z,1016.92
2017-03-04T04:56:28.723Z,1016.94
2017-03-04T04:57:28.712Z,1016.9
2017-03-04T04:58:28.714Z,1016.89
2017-03-04T04:59:28.687Z,1016.89
2017-03-04T05:00:28.675Z,1016.85
2017-03-04T05:01:28.663Z,1016.81
2017-03-04T05:02:28.650Z,1016.82
2017-03-04T05:03:28.638Z,1016.81
2017-03-04T05:04:28.628Z,1016.81
2017-03-04T05:05:28.615Z,1016.79
2017-03-04T05:06:28.602Z,1016.82
2017-03-04T05:07:28.590Z,1016.79
2017-03-04T05:08:28.579Z,1016.82
2017-03-04T05:09:28.566Z,1016.84
2017-03-04T05:10:28.554Z,1016.84
2017-03-04T05:11:28.542Z,1016.86
2017-03-04T05:12:28.530Z,1016.88
2017-03-04T05:13:28.517Z,1016.87
2017-03-04T05:14:28.505Z,1016.95
2017-03-04T05:15:28.493Z,1016.91
2017-03-04T05:16:28.482Z,1016.88
2017-03-04T05:17:28.469Z,1016.91
2017-03-04T05:18:28.457Z,1016.92
2017-03-04T05:19:28.445Z,1016.91
2017-03-04T05:20:28.432Z,1016.91
2017-03-04T05:21:28.422Z,1016.9
2017-03-04T05:22:28.409Z,1016.92
2017-03-04T05:23:28.397Z,1016.94
2017-03-04T05:24:28.384Z,1016.92
2017-03-04T05:25:28.372Z,1016.91
2017-03-04T05:26:28.360Z,1016.9
2017-03-04T05:27:28.348Z,1016.93
2017-03-04T05:28:28.336Z,1016.92
2017-03-04T05:29:28.325Z,1016.95
2017-03-04T05:30:28.313Z,1016.91
2017-03-04T05:31:28.300Z,1016.93
2017-03-04T05:32:28.288Z,1016.9
2017-03-04T05:33:28.276Z,1016.93
2017-03-04T05:34:28.264Z,1016.9
2017-03-04T05:35:28.251Z,1016.93
2017-03-04T05:36:28.239Z,1016.9
2017-03-04T05:37:28.227Z,1016.88
2017-03-04T05:38:28.215Z,1016.9
2017-03-04T05:39:28.202Z,1016.86
2017-03-04T05:40:28.191Z,1016.84
2017-03-04T05:41:28.179Z,1016.84
2017-03-04T05:42:28.166Z,1016.86
2017-03-04T05:43:28.154Z,1016.85
2017-03-04T05:44:28.141Z,1016.88
2017-03-04T05:45:28.130Z,1016.83
2017-03-04T05:46:28.116Z,1016.85
2017-03-04T05:47:28.105Z,1016.8
2017-03-04T05:48:28.092Z,1016.77
2017-03-04T05:49:28.080Z,1016.77
2017-03-04T05:50:28.068Z,1016.77
2017-03-04T05:51:28.056Z,1016.73
2017-03-04T05:52:28.044Z,1016.75
2017-03-04T05:53:28.031Z,1016.71
2017-03-04T05:54:28.019Z,1016.7
2017-03-04T05:55:28.007Z,1016.68
2017-03-04T05:56:27.996Z,1016.69
2017-03-04T05:57:27.982Z,1016.64
2017-03-04T05:58:27.971Z,1016.65
2017-03-04T05:59:27.958Z,1016.63
2017-03-04T06:00:27.945Z,1016.61
2017-03-04T06:01:27.933Z,1016.58
2017-03-04T06:02:27.922Z,1016.57
2017-03-04T06:03:27.909Z,1016.53
2017-03-04T06:04:27.896Z,1016.51
2017-03-04T06:05:27.885Z,1016.53
2017-03-04T06:06:27.873Z,1016.5
2017-03-04T06:07:27.860Z,1016.49
2017-03-04T06:08:27.847Z,1016.49
2017-03-04T06:09:27.836Z,1016.49
2017-03-04T06:10:27.824Z,1016.48
2017-03-04T06:11:27.812Z,1016.48
2017-03-04T06:12:27.799Z,1016.44
2017-03-04T06:13:27.788Z,1016.41
2017-03-04T06:14:27.775Z,1016.42
2017-03-04T06:15:27.763Z,1016.39
2017-03-04T06:16:27.751Z,1016.33
2017-03-04T06:17:27.739Z,1016.35
2017-03-04T06:18:27.729Z,1016.34
2017-03-04T06:19:27.715Z,1016.3
2017-03-04T06:20:27.703Z,1016.24
2017-03-04T06:21:27.691Z,1016.23
2017-03-04T06:22:27.679Z,1016.19
2017-03-04T06:23:27.667Z,1016.13
2017-03-04T06:24:27.658Z,1016.06
2017-03-04T06:25:27.643Z,1016.06
2017-03-04T06:26:27.630Z,1016.03
2017-03-04T06:27:27.620Z,1016.01
2017-03-04T06:28:27.607Z,1015.96
2017-03-04T06:29:27.595Z,1015.93
2017-03-04T06:30:27.584Z,1015.9
2017-03-04T06:31:27.572Z,1015.83
2017-03-04T06:32:27.560Z,1015.81
2017-03-04T06:33:27.548Z,1015.76
2017-03-04T06:34:27.536Z,1015.72
2017-03-04T06:35:27.526Z,1015.69
2017-03-04T06:36:27.515Z,1015.72
2017-03-04T06:37:27.501Z,1015.67
2017-03-04T06:38:27.489Z,1015.65
2017-03-04T06:39:27.480Z,1015.66
2017-03-04T06:40:27.466Z,1015.58
2017-03-04T06:41:27.455Z,1015.54
2017-03-04T06:42:27.444Z,1015.48
2017-03-04T06:43:27.433Z,1015.39
2017-03-04T06:44:27.420Z,1015.34
2017-03-04T06:45:27.409Z,1015.26
2017-03-04T06:46:27.399Z,1015.23
2017-03-04T06:47:27.386Z,1015.18
2017-03-04T06:48:27.375Z,1015.17
2017-03-04T06:49:27.364Z,1015.13
2017-03-04T06:50:27.352Z,1015.09
2017-03-04T06:51:27.342Z,1015.06
2017-03-04T06:52:27.353Z,1015.05
2017-03-04T06:53:27.320Z,1015.02
2017-03-04T06:54:27.308Z,1014.95
2017-03-04T06:55:27.297Z,1014.89
2017-03-04T06:56:27.286Z,1014.87
2017-03-04T06:57:27.276Z,1014.81
2017-03-04T06:58:27.265Z,1014.79
2017-03-04T06:59:27.251Z,1014.74
2017-03-04T07:00:27.242Z,1014.68
2017-03-04T07:01:27.231Z,1014.66
2017-03-04T07:02:27.220Z,1014.63
2017-03-04T07:03:27.210Z,1014.61
2017-03-04T07:04:27.200Z,1014.6
2017-03-04T07:05:27.190Z,1014.56
2017-03-04T07:06:27.179Z,1014.52
2017-03-04T07:07:27.169Z,1014.47
2017-03-04T07:08:27.158Z,1014.39
2017-03-04T07:09:27.147Z,1014.32
2017-03-04T07:10:27.137Z,1014.25
2017-03-04T07:11:27.126Z,1014.18
2017-03-04T07:12:27.116Z,1014.18
2017-03-04T07:13:27.105Z,1014.05
2017-03-04T07:14:27.095Z,1014
2017-03-04T07:15:27.086Z,1013.94
2017-03-04T07:16:27.077Z,1013.9
2017-03-04T07:17:27.067Z,1013.87
2017-03-04T07:18:27.055Z,1013.81
2017-03-04T07:19:27.045Z,1013.71
2017-03-04T07:20:27.036Z,1013.66
2017-03-04T07:21:27.025Z,1013.63
2017-03-04T07:22:27.016Z,1013.62
2017-03-04T07:23:27.006Z,1013.56
2017-03-04T07:24:26.995Z,1013.51
2017-03-04T07:25:26.985Z,1013.47
2017-03-04T07:26:26.977Z,1013.36
2017-03-04T07:27:26.967Z,1013.29
2017-03-04T07:28:26.956Z,1013.27
2017-03-04T07:29:26.947Z,1013.2
2017-03-04T07:30:26.938Z,1013.17
2017-03-04T07:31:26.929Z,1013.1
2017-03-04T07:32:26.919Z,1013.03
2017-03-04T07:33:26.910Z,1012.98
2017-03-04T07:34:26.899Z,1012.93
2017-03-04T07:35:26.891Z,1012.95
2017-03-04T07:36:26.884Z,1012.89
2017-03-04T07:37:26.873Z,1012.81
2017-03-04T07:38:26.864Z,1012.68
2017-03-04T07:39:26.856Z,1012.64
2017-03-04T07:40:26.846Z,1012.56
2017-03-04T07:41:26.837Z,1012.52
2017-03-04T07:42:26.832Z,1012.41
2017-03-04T07:43:26.819Z,1012.36
2017-03-04T07:44:26.811Z,1012.22
2017-03-04T07:45:26.803Z,1012.04
2017-03-04T07:46:26.793Z,1011.94
2017-03-04T07:47:26.785Z,1011.78
2017-03-04T07:48:26.776Z,1011.7
2017-03-04T07:49:26.769Z,1011.62
2017-03-04T07:50:26.760Z,1011.54
2017-03-04T07:51:26.752Z,1011.44
2017-03-04T07:52:26.745Z,1011.37
2017-03-04T07:53:26.736Z,1011.37
2017-03-04T07:54:26.728Z,1011.29
2017-03-04T07:55:26.720Z,1011.22
2017-03-04T07:56:26.713Z,1011.16
2017-03-04T07:57:26.705Z,1011.09
2017-03-04T07:58:26.698Z,1011
2017-03-04T07:59:26.693Z,1010.96
2017-03-04T08:00:26.683Z,1010.97
2017-03-04T08:01:26.675Z,1010.94
2017-03-04T08:02:26.668Z,1010.95
2017-03-04T08:03:26.661Z,1010.98
2017-03-04T08:04:26.654Z,1010.97
2017-03-04T08:05:26.647Z,1010.97
2017-03-04T08:06:26.639Z,1011.02
2017-03-04T08:07:26.633Z,1011.02
2017-03-04T08:08:26.625Z,1010.99
2017-03-04T08:09:26.617Z,1010.99
2017-03-04T08:10:26.612Z,1011.01
2017-03-04T08:11:26.605Z,1010.98
2017-03-04T08:12:26.599Z,1011
2017-03-04T08:13:26.591Z,1010.95
2017-03-04T08:14:26.585Z,1010.97
2017-03-04T08:15:26.578Z,1010.95
2017-03-04T08:16:26.571Z,1010.93
2017-03-04T08:17:26.564Z,1010.89
2017-03-04T08:18:26.563Z,1010.86
2017-03-04T08:19:26.551Z,1010.8
2017-03-04T08:20:26.544Z,1010.77
2017-03-04T08:21:26.538Z,1010.77
2017-03-04T08:22:26.531Z,1010.71
2017-03-04T08:23:26.524Z,1010.71
2017-03-04T08:24:26.519Z,1010.67
2017-03-04T08:25:26.512Z,1010.7
2017-03-04T08:26:26.506Z,1010.65
2017-03-04T08:27:26.500Z,1010.62
2017-03-04T08:28:26.492Z,1010.6
2017-03-04T08:29:26.487Z,1010.59
2017-03-04T08:30:26.480Z,1010.53
2017-03-04T08:31:26.474Z,1010.56
2017-03-04T08:32:26.469Z,1010.58
2017-03-04T08:33:26.462Z,1010.57
2017-03-04T08:34:26.456Z,1010.61
2017-03-04T08:35:26.449Z,1010.59
2017-03-04T08:36:26.442Z,1010.57
2017-03-04T08:37:26.438Z,1010.54
2017-03-04T08:38:26.431Z,1010.56
2017-03-04T08:39:26.426Z,1010.57
2017-03-04T08:40:26.420Z,1010.55
2017-03-04T08:41:26.413Z,1010.57
2017-03-04T08:42:26.408Z,1010.55
2017-03-04T08:43:26.402Z,1010.47
2017-03-04T08:44:26.397Z,1010.47
2017-03-04T08:45:26.390Z,1010.37
2017-03-04T08:46:26.384Z,1010.33
2017-03-04T08:47:26.378Z,1010.29
2017-03-04T08:48:26.373Z,1010.27
2017-03-04T08:49:26.368Z,1010.26
2017-03-04T08:50:26.360Z,1010.31
2017-03-04T08:51:26.356Z,1010.33
2017-03-04T08:52:26.348Z,1010.24
2017-03-04T08:53:26.343Z,1010.22
2017-03-04T08:54:26.338Z,1010.1
2017-03-04T08:55:26.332Z,1010.08
2017-03-04T08:56:26.326Z,1010.11
2017-03-04T08:57:26.321Z,1010.12
2017-03-04T08:58:26.315Z,1010.15
2017-03-04T08:59:26.309Z,1010.16
2017-03-04T09:00:26.307Z,1010.14
2017-03-04T09:01:26.299Z,1010.14
2017-03-04T09:02:26.292Z,1010.16
2017-03-04T09:03:26.286Z,1010.15
2017-03-04T09:04:26.282Z,1010.18
2017-03-04T09:05:26.278Z,1010.21
2017-03-04T09:06:26.271Z,1010.26
2017-03-04T09:07:26.267Z,1010.33
2017-03-04T09:08:26.260Z,1010.31
2017-03-04T09:09:26.255Z,1010.31
2017-03-04T09:10:26.249Z,1010.29
2017-03-04T09:11:26.244Z,1010.29
2017-03-04T09:12:26.242Z,1010.27
2017-03-04T09:13:26.233Z,1010.24
2017-03-04T09:14:26.227Z,1010.15
2017-03-04T09:15:26.222Z,1010.13
2017-03-04T09:16:26.216Z,1010.09
2017-03-04T09:17:26.211Z,1010.12
2017-03-04T09:18:26.208Z,1010.09
2017-03-04T09:19:26.200Z,1010.02
2017-03-04T09:20:26.195Z,1009.92
2017-03-04T09:21:26.191Z,1009.95
2017-03-04T09:22:26.183Z,1009.8
2017-03-04T09:23:26.178Z,1009.79
2017-03-04T09:24:26.173Z,1009.79
2017-03-04T09:25:26.170Z,1009.76
2017-03-04T09:26:26.163Z,1009.75
2017-03-04T09:27:26.156Z,1009.79
2017-03-04T09:28:26.152Z,1009.74
2017-03-04T09:29:26.146Z,1009.76
2017-03-04T09:30:26.141Z,1009.72
2017-03-04T09:31:26.136Z,1009.68
2017-03-04T09:32:26.130Z,1009.66
2017-03-04T09:33:26.125Z,1009.63
2017-03-04T09:34:26.120Z,1009.6
2017-03-04T09:35:26.115Z,1009.58
2017-03-04T09:36:26.109Z,1009.49
2017-03-04T09:37:26.105Z,1009.44
2017-03-04T09:38:26.099Z,1009.4
2017-03-04T09:39:26.094Z,1009.38
2017-03-04T09:40:26.088Z,1009.29
2017-03-04T09:41:26.084Z,1009.26
2017-03-04T09:42:26.080Z,1009.19
2017-03-04T09:43:26.073Z,1009.17
2017-03-04T09:44:26.068Z,1009.16
2017-03-04T09:45:26.064Z,1009.12
2017-03-04T09:46:26.059Z,1009.16
2017-03-04T09:47:26.054Z,1009.17
2017-03-04T09:48:26.049Z,1009.2
2017-03-04T09:49:26.044Z,1009.09
2017-03-04T09:50:26.040Z,1009.14
2017-03-04T09:51:26.035Z,1009.18
2017-03-04T09:52:26.030Z,1009.18
2017-03-04T09:53:26.026Z,1009.24
2017-03-04T09:54:26.021Z,1009.22
2017-03-04T09:55:26.016Z,1009.28
2017-03-04T09:56:26.011Z,1009.23
2017-03-04T09:57:26.007Z,1009.22
2017-03-04T09:58:26.002Z,1009.25
2017-03-04T09:59:25.997Z,1009.23
2017-03-04T10:00:25.996Z,1009.18
2017-03-04T10:01:25.989Z,1009.16
2017-03-04T10:02:25.983Z,1009.13
2017-03-04T10:03:25.978Z,1009.05
2017-03-04T10:04:25.976Z,1009.01
2017-03-04T10:05:25.970Z,1008.93
2017-03-04T10:06:25.965Z,1008.9
2017-03-04T10:07:25.961Z,1008.93
2017-03-04T10:08:25.956Z,1008.91
2017-03-04T10:09:25.951Z,1008.87
2017-03-04T10:10:25.947Z,1008.84
2017-03-04T10:11:25.942Z,1008.82
2017-03-04T10:12:25.938Z,1008.84
2017-03-04T10:13:25.934Z,1008.8
2017-03-04T10:14:25.929Z,1008.82
2017-03-04T10:15:25.925Z,1008.8
2017-03-04T10:16:25.920Z,1008.79
2017-03-04T10:17:25.916Z,1008.82
2017-03-04T10:18:25.910Z,1008.84
2017-03-04T10:19:25.908Z,1008.77
2017-03-04T10:20:25.902Z,1008.81
2017-03-04T10:21:25.898Z,1008.76
2017-03-04T10:22:25.894Z,1008.76
2017-03-04T10:23:25.889Z,1008.65
2017-03-04T10:24:25.885Z,1008.68
2017-03-04T10:25:25.882Z,1008.67
2017-03-04T10:26:25.876Z,1008.67
2017-03-04T10:27:25.872Z,1008.66
2017-03-04T10:28:25.868Z,1008.62
2017-03-04T10:29:25.864Z,1008.57
2017-03-04T10:30:25.863Z,1008.59
2017-03-04T10:31:25.855Z,1008.56
2017-03-04T10:32:25.851Z,1008.51
2017-03-04T10:33:25.848Z,1008.47
2017-03-04T10:34:25.842Z,1008.38
2017-03-04T10:35:25.838Z,1008.28
2017-03-04T10:36:25.834Z,1008.25
2017-03-04T10:37:25.830Z,1008.19
2017-03-04T10:38:25.826Z,1008.21
2017-03-04T10:39:25.822Z,1008.12
2017-03-04T10:40:25.818Z,1008.16
2017-03-04T10:41:25.814Z,1008.14
2017-03-04T10:42:25.810Z,1008.14
2017-03-04T10:43:25.806Z,1008.18
2017-03-04T10:44:25.803Z,1008.15
2017-03-04T10:45:25.798Z,1008.19
2017-03-04T10:46:25.795Z,1008.18
2017-03-04T10:47:25.791Z,1008.19
2017-03-04T10:48:25.788Z,1008.13
2017-03-04T10:49:25.783Z,1008.14
2017-03-04T10:50:25.779Z,1008.11
2017-03-04T10:51:25.776Z,1008.14
2017-03-04T10:52:25.773Z,1008.08
2017-03-04T10:53:25.768Z,1008.05
2017-03-04T10:54:25.765Z,1008.04
2017-03-04T10:55:25.761Z,1008.03
2017-03-04T10:56:25.757Z,1008.05
2017-03-04T10:57:25.753Z,1008
2017-03-04T10:58:25.750Z,1008.01
2017-03-04T10:59:25.746Z,1007.99
2017-03-04T11:00:25.741Z,1008.01
2017-03-04T11:01:25.738Z,1007.99
2017-03-04T11:02:25.735Z,1007.99
2017-03-04T11:03:25.732Z,1007.94
2017-03-04T11:04:25.728Z,1007.96
2017-03-04T11:05:25.724Z,1007.92
2017-03-04T11:06:25.721Z,1007.88
2017-03-04T11:07:25.717Z,1007.86
2017-03-04T11:08:25.713Z,1007.85
2017-03-04T11:09:25.713Z,1007.79
2017-03-04T11:10:25.706Z,1007.75
2017-03-04T11:11:25.705Z,1007.77
2017-03-04T11:12:25.699Z,1007.74
2017-03-04T11:13:25.696Z,1007.74
2017-03-04T11:14:25.692Z,1007.72
2017-03-04T11:15:25.688Z,1007.72
2017-03-04T11:16:25.685Z,1007.73
2017-03-04T11:17:25.681Z,1007.73
2017-03-04T11:18:25.678Z,1007.71
2017-03-04T11:19:25.674Z,1007.72
2017-03-04T11:20:25.670Z,1007.68
2017-03-04T11:21:25.667Z,1007.67
2017-03-04T11:22:25.662Z,1007.64
2017-03-04T11:23:25.659Z,1007.64
2017-03-04T11:24:25.658Z,1007.64
2017-03-04T11:25:25.652Z,1007.62
2017-03-04T11:26:25.650Z,1007.6
2017-03-04T11:27:25.646Z,1007.6
2017-03-04T11:28:25.642Z,1007.57
2017-03-04T11:29:25.641Z,1007.54
2017-03-04T11:30:25.635Z,1007.5
2017-03-04T11:31:25.632Z,1007.47
2017-03-04T11:32:25.629Z,1007.46
2017-03-04T11:33:25.624Z,1007.45
2017-03-04T11:34:25.621Z,1007.38
2017-03-04T11:35:25.618Z,1007.39
2017-03-04T11:36:25.615Z,1007.36
2017-03-04T11:37:25.611Z,1007.32
2017-03-04T11:38:25.607Z,1007.29
2017-03-04T11:39:25.606Z,1007.26
2017-03-04T11:40:25.600Z,1007.23
2017-03-04T11:41:25.597Z,1007.21
2017-03-04T11:42:25.595Z,1007.23
2017-03-04T11:43:25.591Z,1007.2
2017-03-04T11:44:25.587Z,1007.15
2017-03-04T11:45:25.584Z,1007.07
2017-03-04T11:46:25.581Z,1007.07
2017-03-04T11:47:25.578Z,1007.02
2017-03-04T11:48:25.576Z,1007.04
2017-03-04T11:49:25.572Z,1007.06
2017-03-04T11:50:25.569Z,1006.97
2017-03-04T11:51:25.565Z,1007.03
2017-03-04T11:52:25.562Z,1007.06
2017-03-04T11:53:25.559Z,1007.03
2017-03-04T11:54:25.557Z,1007.05
2017-03-04T11:55:25.552Z,1007.01
2017-03-04T11:56:25.548Z,1007.01
2017-03-04T11:57:25.546Z,1007.05
2017-03-04T11:58:25.543Z,1007.03
2017-03-04T11:59:25.541Z,1007.01
2017-03-04T12:00:25.537Z,1007.04
2017-03-04T12:01:25.533Z,1007
2017-03-04T12:02:25.530Z,1007.05
2017-03-04T12:03:25.527Z,1007.07
2017-03-04T12:04:25.524Z,1007.03
2017-03-04T12:05:25.523Z,1007.03
2017-03-04T12:06:25.517Z,1007.02
2017-03-04T12:07:25.515Z,1006.96
2017-03-04T12:08:25.512Z,1006.96